sensor_id;sensor_type;location;lat;lon;timestamp;temperature;humidity
14378;DHT22;7272;53.668;9.578;2023-04-20T00:01:20;9.00;99.90
14378;DHT22;7272;53.668;9.578;2023-04-20T00:04:22;9.00;99.90
14378;DHT22;7272;53.668;9.578;2023-04-20T00:07:23;8.90;99.90
14378;DHT22;7272;53.668;9.578;2023-04-20T00:10:24;8.90;99.90
14378;DHT22;7272;53.668;9.578;2023-04-20T00:13:26;8.90;99.90
14378;DHT22;7272;53.668;9.578;2023-04-20T00:16:27;8.90;99.90
14378;DHT22;7272;53.668;9.578;2023-04-20T00:19:29;9.00;99.90
14378;DHT22;7272;53.668;9.578;2023-04-20T00:22:32;9.00;99.90
14378;DHT22;7272;53.668;9.578;2023-04-20T00:25:34;9.10;99.90
14378;DHT22;7272;53.668;9.578;2023-04-20T00:28:35;9.20;99.90
14378;DHT22;7272;53.668;9.578;2023-04-20T00:31:36;9.20;99.90
14378;DHT22;7272;53.668;9.578;2023-04-20T00:34:38;9.20;99.90
14378;DHT22;7272;53.668;9.578;2023-04-20T00:37:39;9.30;99.90
14378;DHT22;7272;53.668;9.578;2023-04-20T00:40:42;9.30;99.90
14378;DHT22;7272;53.668;9.578;2023-04-20T00:43:49;9.30;99.90
14378;DHT22;7272;53.668;9.578;2023-04-20T00:46:51;9.40;99.90
14378;DHT22;7272;53.668;9.578;2023-04-20T00:49:55;9.40;99.90
14378;DHT22;7272;53.668;9.578;2023-04-20T00:52:56;9.60;99.90
14378;DHT22;7272;53.668;9.578;2023-04-20T00:55:58;9.60;99.90
14378;DHT22;7272;53.668;9.578;2023-04-20T00:59:00;9.70;99.90
14378;DHT22;7272;53.668;9.578;2023-04-20T01:02:02;9.70;99.90
14378;DHT22;7272;53.668;9.578;2023-04-20T01:05:04;9.70;99.90
14378;DHT22;7272;53.668;9.578;2023-04-20T01:08:06;9.70;99.90
14378;DHT22;7272;53.668;9.578;2023-04-20T01:11:07;9.70;99.90
14378;DHT22;7272;53.668;9.578;2023-04-20T01:14:09;9.70;99.90
14378;DHT22;7272;53.668;9.578;2023-04-20T01:17:10;9.70;99.90
14378;DHT22;7272;53.668;9.578;2023-04-20T01:20:13;9.60;99.90
14378;DHT22;7272;53.668;9.578;2023-04-20T01:23:15;9.60;99.90
14378;DHT22;7272;53.668;9.578;2023-04-20T01:26:20;9.60;99.90
14378;DHT22;7272;53.668;9.578;2023-04-20T01:29:24;9.60;99.90
14378;DHT22;7272;53.668;9.578;2023-04-20T01:32:25;9.60;99.90
14378;DHT22;7272;53.668;9.578;2023-04-20T01:35:26;9.50;99.90
14378;DHT22;7272;53.668;9.578;2023-04-20T01:38:29;9.50;99.90
14378;DHT22;7272;53.668;9.578;2023-04-20T01:41:34;9.40;99.90
14378;DHT22;7272;53.668;9.578;2023-04-20T01:44:36;9.40;99.90
14378;DHT22;7272;53.668;9.578;2023-04-20T01:47:37;9.40;99.90
14378;DHT22;7272;53.668;9.578;2023-04-20T01:50:41;9.30;99.90
14378;DHT22;7272;53.668;9.578;2023-04-20T01:53:43;9.30;99.90
14378;DHT22;7272;53.668;9.578;2023-04-20T01:56:44;9.20;99.90
14378;DHT22;7272;53.668;9.578;2023-04-20T01:59:45;9.20;99.90
14378;DHT22;7272;53.668;9.578;2023-04-20T02:02:46;9.20;99.90
14378;DHT22;7272;53.668;9.578;2023-04-20T02:05:49;9.30;99.90
14378;DHT22;7272;53.668;9.578;2023-04-20T02:08:52;9.30;99.90
14378;DHT22;7272;53.668;9.578;2023-04-20T02:11:54;9.30;99.90
14378;DHT22;7272;53.668;9.578;2023-04-20T02:14:56;9.30;99.90
14378;DHT22;7272;53.668;9.578;2023-04-20T02:17:58;9.20;99.90
14378;DHT22;7272;53.668;9.578;2023-04-20T02:21:00;9.10;99.90
14378;DHT22;7272;53.668;9.578;2023-04-20T02:24:02;9.00;99.90
14378;DHT22;7272;53.668;9.578;2023-04-20T02:27:03;8.90;99.90
14378;DHT22;7272;53.668;9.578;2023-04-20T02:30:07;8.80;99.90
14378;DHT22;7272;53.668;9.578;2023-04-20T02:33:09;8.80;99.90
14378;DHT22;7272;53.668;9.578;2023-04-20T02:36:10;8.70;99.90
14378;DHT22;7272;53.668;9.578;2023-04-20T02:39:15;8.60;99.90
14378;DHT22;7272;53.668;9.578;2023-04-20T02:42:16;8.60;99.90
14378;DHT22;7272;53.668;9.578;2023-04-20T02:45:18;8.60;99.90
14378;DHT22;7272;53.668;9.578;2023-04-20T02:48:21;8.50;99.90
14378;DHT22;7272;53.668;9.578;2023-04-20T02:51:22;8.40;99.90
14378;DHT22;7272;53.668;9.578;2023-04-20T02:54:25;8.40;99.90
14378;DHT22;7272;53.668;9.578;2023-04-20T02:57:27;8.50;99.90
14378;DHT22;7272;53.668;9.578;2023-04-20T03:00:30;8.40;99.90
14378;DHT22;7272;53.668;9.578;2023-04-20T03:03:37;8.30;99.90
14378;DHT22;7272;53.668;9.578;2023-04-20T03:06:41;8.30;99.90
14378;DHT22;7272;53.668;9.578;2023-04-20T03:09:47;8.30;99.90
14378;DHT22;7272;53.668;9.578;2023-04-20T03:12:54;8.30;99.90
14378;DHT22;7272;53.668;9.578;2023-04-20T03:16:20;8.30;99.90
14378;DHT22;7272;53.668;9.578;2023-04-20T03:19:24;8.30;99.90
14378;DHT22;7272;53.668;9.578;2023-04-20T03:22:26;8.20;99.90
14378;DHT22;7272;53.668;9.578;2023-04-20T03:25:31;8.20;99.90
14378;DHT22;7272;53.668;9.578;2023-04-20T03:28:33;8.20;99.90
14378;DHT22;7272;53.668;9.578;2023-04-20T03:31:35;8.20;99.90
14378;DHT22;7272;53.668;9.578;2023-04-20T03:34:37;8.30;99.90
14378;DHT22;7272;53.668;9.578;2023-04-20T03:37:39;8.20;99.90
14378;DHT22;7272;53.668;9.578;2023-04-20T03:40:42;8.20;99.90
14378;DHT22;7272;53.668;9.578;2023-04-20T03:43:43;8.20;99.90
14378;DHT22;7272;53.668;9.578;2023-04-20T03:46:44;8.10;99.90
14378;DHT22;7272;53.668;9.578;2023-04-20T03:49:46;8.10;99.90
14378;DHT22;7272;53.668;9.578;2023-04-20T03:52:47;8.10;99.90
14378;DHT22;7272;53.668;9.578;2023-04-20T03:55:49;8.10;99.90
14378;DHT22;7272;53.668;9.578;2023-04-20T03:58:54;8.10;99.90
14378;DHT22;7272;53.668;9.578;2023-04-20T04:01:59;8.10;99.90
14378;DHT22;7272;53.668;9.578;2023-04-20T04:05:01;8.00;99.90
14378;DHT22;7272;53.668;9.578;2023-04-20T04:08:03;7.90;99.90
14378;DHT22;7272;53.668;9.578;2023-04-20T04:11:06;7.80;99.90
14378;DHT22;7272;53.668;9.578;2023-04-20T04:14:07;7.70;99.90
14378;DHT22;7272;53.668;9.578;2023-04-20T04:17:13;7.70;99.90
14378;DHT22;7272;53.668;9.578;2023-04-20T04:20:16;7.70;99.90
14378;DHT22;7272;53.668;9.578;2023-04-20T04:23:17;7.60;99.90
14378;DHT22;7272;53.668;9.578;2023-04-20T04:26:25;7.60;99.90
14378;DHT22;7272;53.668;9.578;2023-04-20T04:29:27;7.60;99.90
14378;DHT22;7272;53.668;9.578;2023-04-20T04:32:32;7.60;99.90
14378;DHT22;7272;53.668;9.578;2023-04-20T04:35:34;7.70;99.90
14378;DHT22;7272;53.668;9.578;2023-04-20T04:38:35;7.70;99.90
14378;DHT22;7272;53.668;9.578;2023-04-20T04:41:37;7.60;99.90
14378;DHT22;7272;53.668;9.578;2023-04-20T04:44:49;7.60;99.90
14378;DHT22;7272;53.668;9.578;2023-04-20T04:47:59;7.50;99.90
14378;DHT22;7272;53.668;9.578;2023-04-20T04:51:00;7.50;99.90
14378;DHT22;7272;53.668;9.578;2023-04-20T04:54:02;7.50;99.90
14378;DHT22;7272;53.668;9.578;2023-04-20T04:57:04;7.50;99.90
14378;DHT22;7272;53.668;9.578;2023-04-20T05:00:07;7.50;99.90
14378;DHT22;7272;53.668;9.578;2023-04-20T05:03:09;7.50;99.90
14378;DHT22;7272;53.668;9.578;2023-04-20T05:06:10;7.50;99.90
14378;DHT22;7272;53.668;9.578;2023-04-20T05:09:11;7.50;99.90
14378;DHT22;7272;53.668;9.578;2023-04-20T05:12:13;7.50;99.90
14378;DHT22;7272;53.668;9.578;2023-04-20T05:15:15;7.50;99.90
14378;DHT22;7272;53.668;9.578;2023-04-20T05:18:17;7.60;99.90
14378;DHT22;7272;53.668;9.578;2023-04-20T05:21:18;7.60;99.90
14378;DHT22;7272;53.668;9.578;2023-04-20T05:24:20;7.70;99.90
14378;DHT22;7272;53.668;9.578;2023-04-20T05:27:22;7.60;99.90
14378;DHT22;7272;53.668;9.578;2023-04-20T05:30:23;7.70;99.90
14378;DHT22;7272;53.668;9.578;2023-04-20T05:33:24;7.80;99.90
14378;DHT22;7272;53.668;9.578;2023-04-20T05:36:25;7.80;99.90
14378;DHT22;7272;53.668;9.578;2023-04-20T05:39:29;7.80;99.90
14378;DHT22;7272;53.668;9.578;2023-04-20T05:42:31;7.80;99.90
14378;DHT22;7272;53.668;9.578;2023-04-20T05:45:32;7.70;99.90
14378;DHT22;7272;53.668;9.578;2023-04-20T05:48:33;7.70;99.90
14378;DHT22;7272;53.668;9.578;2023-04-20T05:51:35;7.70;99.90
14378;DHT22;7272;53.668;9.578;2023-04-20T05:54:36;7.70;99.90
14378;DHT22;7272;53.668;9.578;2023-04-20T05:57:38;7.70;99.90
14378;DHT22;7272;53.668;9.578;2023-04-20T06:00:42;7.60;99.90
14378;DHT22;7272;53.668;9.578;2023-04-20T06:03:44;7.70;99.90
14378;DHT22;7272;53.668;9.578;2023-04-20T06:06:45;7.70;99.90
14378;DHT22;7272;53.668;9.578;2023-04-20T06:09:46;7.70;99.90
14378;DHT22;7272;53.668;9.578;2023-04-20T06:12:48;7.60;99.90
14378;DHT22;7272;53.668;9.578;2023-04-20T06:15:50;7.60;99.90
14378;DHT22;7272;53.668;9.578;2023-04-20T06:18:52;7.60;99.90
14378;DHT22;7272;53.668;9.578;2023-04-20T06:21:53;7.70;99.90
14378;DHT22;7272;53.668;9.578;2023-04-20T06:24:54;7.70;99.90
14378;DHT22;7272;53.668;9.578;2023-04-20T06:27:56;7.70;99.90
14378;DHT22;7272;53.668;9.578;2023-04-20T06:30:57;7.70;99.90
14378;DHT22;7272;53.668;9.578;2023-04-20T06:33:58;7.70;99.90
14378;DHT22;7272;53.668;9.578;2023-04-20T06:37:00;7.70;99.90
14378;DHT22;7272;53.668;9.578;2023-04-20T06:40:01;7.70;99.90
14378;DHT22;7272;53.668;9.578;2023-04-20T06:43:08;7.70;99.90
14378;DHT22;7272;53.668;9.578;2023-04-20T06:46:09;7.80;99.90
14378;DHT22;7272;53.668;9.578;2023-04-20T06:49:11;7.70;99.90
14378;DHT22;7272;53.668;9.578;2023-04-20T06:52:12;7.70;99.90
14378;DHT22;7272;53.668;9.578;2023-04-20T06:55:13;7.80;99.90
14378;DHT22;7272;53.668;9.578;2023-04-20T06:58:15;7.90;99.90
14378;DHT22;7272;53.668;9.578;2023-04-20T07:01:16;7.80;99.90
14378;DHT22;7272;53.668;9.578;2023-04-20T07:04:18;7.80;99.90
14378;DHT22;7272;53.668;9.578;2023-04-20T07:07:19;7.80;99.90
14378;DHT22;7272;53.668;9.578;2023-04-20T07:10:20;8.00;99.90
14378;DHT22;7272;53.668;9.578;2023-04-20T07:13:22;7.90;99.90
14378;DHT22;7272;53.668;9.578;2023-04-20T07:16:24;8.00;99.90
14378;DHT22;7272;53.668;9.578;2023-04-20T07:19:25;7.90;99.90
14378;DHT22;7272;53.668;9.578;2023-04-20T07:22:26;8.00;99.90
14378;DHT22;7272;53.668;9.578;2023-04-20T07:25:27;8.10;99.90
14378;DHT22;7272;53.668;9.578;2023-04-20T07:28:31;8.10;99.90
14378;DHT22;7272;53.668;9.578;2023-04-20T07:31:33;8.20;99.90
14378;DHT22;7272;53.668;9.578;2023-04-20T07:34:34;8.20;99.90
14378;DHT22;7272;53.668;9.578;2023-04-20T07:37:35;8.20;99.90
14378;DHT22;7272;53.668;9.578;2023-04-20T07:40:36;8.20;99.90
14378;DHT22;7272;53.668;9.578;2023-04-20T07:43:38;8.20;99.90
14378;DHT22;7272;53.668;9.578;2023-04-20T07:46:40;8.20;99.90
14378;DHT22;7272;53.668;9.578;2023-04-20T07:49:42;8.20;99.90
14378;DHT22;7272;53.668;9.578;2023-04-20T07:52:43;8.20;99.90
14378;DHT22;7272;53.668;9.578;2023-04-20T07:55:45;8.20;99.90
14378;DHT22;7272;53.668;9.578;2023-04-20T07:58:46;8.20;99.90
14378;DHT22;7272;53.668;9.578;2023-04-20T08:01:48;8.20;99.90
14378;DHT22;7272;53.668;9.578;2023-04-20T08:04:50;8.20;99.90
14378;DHT22;7272;53.668;9.578;2023-04-20T08:07:51;8.20;99.90
14378;DHT22;7272;53.668;9.578;2023-04-20T08:10:55;8.20;99.90
14378;DHT22;7272;53.668;9.578;2023-04-20T08:13:57;8.30;99.90
14378;DHT22;7272;53.668;9.578;2023-04-20T08:16:58;8.20;99.90
14378;DHT22;7272;53.668;9.578;2023-04-20T08:20:00;8.20;99.90
14378;DHT22;7272;53.668;9.578;2023-04-20T08:23:01;8.20;99.90
14378;DHT22;7272;53.668;9.578;2023-04-20T08:26:03;8.20;99.90
14378;DHT22;7272;53.668;9.578;2023-04-20T08:29:05;8.30;99.90
14378;DHT22;7272;53.668;9.578;2023-04-20T08:32:06;8.30;99.90
14378;DHT22;7272;53.668;9.578;2023-04-20T08:35:08;8.30;99.90
14378;DHT22;7272;53.668;9.578;2023-04-20T08:38:10;8.30;99.90
14378;DHT22;7272;53.668;9.578;2023-04-20T08:41:11;8.30;99.90
14378;DHT22;7272;53.668;9.578;2023-04-20T08:44:14;8.20;99.90
14378;DHT22;7272;53.668;9.578;2023-04-20T08:47:15;8.20;99.90
14378;DHT22;7272;53.668;9.578;2023-04-20T08:50:18;8.10;99.90
14378;DHT22;7272;53.668;9.578;2023-04-20T08:53:19;8.10;99.90
14378;DHT22;7272;53.668;9.578;2023-04-20T08:56:34;8.10;99.90
14378;DHT22;7272;53.668;9.578;2023-04-20T08:59:36;8.10;99.90
14378;DHT22;7272;53.668;9.578;2023-04-20T09:02:47;8.10;99.90
14378;DHT22;7272;53.668;9.578;2023-04-20T09:05:49;8.20;99.90
14378;DHT22;7272;53.668;9.578;2023-04-20T09:08:51;8.20;99.90
14378;DHT22;7272;53.668;9.578;2023-04-20T09:11:59;8.30;99.90
14378;DHT22;7272;53.668;9.578;2023-04-20T09:15:03;8.40;99.90
14378;DHT22;7272;53.668;9.578;2023-04-20T09:18:13;8.50;99.90
14378;DHT22;7272;53.668;9.578;2023-04-20T09:21:14;8.60;99.90
14378;DHT22;7272;53.668;9.578;2023-04-20T09:24:17;8.60;99.90
14378;DHT22;7272;53.668;9.578;2023-04-20T09:27:19;8.70;99.90
14378;DHT22;7272;53.668;9.578;2023-04-20T09:30:23;8.80;99.90
14378;DHT22;7272;53.668;9.578;2023-04-20T09:33:27;8.80;99.90
14378;DHT22;7272;53.668;9.578;2023-04-20T09:36:36;8.90;99.90
14378;DHT22;7272;53.668;9.578;2023-04-20T09:39:40;8.90;99.90
14378;DHT22;7272;53.668;9.578;2023-04-20T09:42:43;9.20;99.90
14378;DHT22;7272;53.668;9.578;2023-04-20T09:45:45;9.50;99.90
14378;DHT22;7272;53.668;9.578;2023-04-20T09:48:47;9.60;99.90
14378;DHT22;7272;53.668;9.578;2023-04-20T09:51:48;9.70;99.90
14378;DHT22;7272;53.668;9.578;2023-04-20T09:54:50;9.70;99.90
14378;DHT22;7272;53.668;9.578;2023-04-20T09:57:53;9.50;99.90
14378;DHT22;7272;53.668;9.578;2023-04-20T10:00:54;9.60;99.90
14378;DHT22;7272;53.668;9.578;2023-04-20T10:03:57;9.70;99.90
14378;DHT22;7272;53.668;9.578;2023-04-20T10:06:59;9.60;99.90
14378;DHT22;7272;53.668;9.578;2023-04-20T10:10:07;9.60;99.90
14378;DHT22;7272;53.668;9.578;2023-04-20T10:13:09;9.70;99.90
14378;DHT22;7272;53.668;9.578;2023-04-20T10:16:17;9.80;99.90
14378;DHT22;7272;53.668;9.578;2023-04-20T10:19:18;9.70;99.90
14378;DHT22;7272;53.668;9.578;2023-04-20T10:22:25;9.60;99.90
14378;DHT22;7272;53.668;9.578;2023-04-20T10:25:28;9.70;99.90
14378;DHT22;7272;53.668;9.578;2023-04-20T10:28:38;9.90;99.90
14378;DHT22;7272;53.668;9.578;2023-04-20T10:31:41;10.30;99.90
14378;DHT22;7272;53.668;9.578;2023-04-20T10:34:42;10.80;99.90
14378;DHT22;7272;53.668;9.578;2023-04-20T10:37:47;11.30;99.90
14378;DHT22;7272;53.668;9.578;2023-04-20T10:40:49;11.30;99.90
14378;DHT22;7272;53.668;9.578;2023-04-20T10:43:50;11.10;99.90
14378;DHT22;7272;53.668;9.578;2023-04-20T10:46:52;11.00;99.90
14378;DHT22;7272;53.668;9.578;2023-04-20T10:49:54;10.90;99.90
14378;DHT22;7272;53.668;9.578;2023-04-20T10:53:05;11.00;99.90
14378;DHT22;7272;53.668;9.578;2023-04-20T10:56:17;10.90;99.90
14378;DHT22;7272;53.668;9.578;2023-04-20T10:59:20;10.70;99.90
14378;DHT22;7272;53.668;9.578;2023-04-20T11:02:22;10.80;99.90
14378;DHT22;7272;53.668;9.578;2023-04-20T11:05:25;10.90;99.90
14378;DHT22;7272;53.668;9.578;2023-04-20T11:08:40;10.80;99.90
14378;DHT22;7272;53.668;9.578;2023-04-20T11:11:42;11.00;99.90
14378;DHT22;7272;53.668;9.578;2023-04-20T11:14:51;11.30;99.90
14378;DHT22;7272;53.668;9.578;2023-04-20T11:17:53;11.20;99.90
14378;DHT22;7272;53.668;9.578;2023-04-20T11:20:55;11.30;99.90
14378;DHT22;7272;53.668;9.578;2023-04-20T11:23:56;11.40;99.90
14378;DHT22;7272;53.668;9.578;2023-04-20T11:26:58;11.40;99.90
14378;DHT22;7272;53.668;9.578;2023-04-20T11:29:59;11.20;99.90
14378;DHT22;7272;53.668;9.578;2023-04-20T11:33:06;11.10;99.90
14378;DHT22;7272;53.668;9.578;2023-04-20T11:36:17;11.00;99.90
14378;DHT22;7272;53.668;9.578;2023-04-20T11:39:23;11.00;99.90
14378;DHT22;7272;53.668;9.578;2023-04-20T11:42:24;10.90;99.90
14378;DHT22;7272;53.668;9.578;2023-04-20T11:45:26;11.00;99.90
14378;DHT22;7272;53.668;9.578;2023-04-20T11:48:29;11.10;99.90
14378;DHT22;7272;53.668;9.578;2023-04-20T11:51:31;11.10;99.90
14378;DHT22;7272;53.668;9.578;2023-04-20T11:54:32;11.20;99.90
14378;DHT22;7272;53.668;9.578;2023-04-20T11:57:34;11.30;99.90
14378;DHT22;7272;53.668;9.578;2023-04-20T12:00:36;11.20;99.90
14378;DHT22;7272;53.668;9.578;2023-04-20T12:03:37;11.00;99.90
14378;DHT22;7272;53.668;9.578;2023-04-20T12:06:39;11.00;99.90
14378;DHT22;7272;53.668;9.578;2023-04-20T12:09:41;11.20;99.90
14378;DHT22;7272;53.668;9.578;2023-04-20T12:12:42;11.20;99.90
14378;DHT22;7272;53.668;9.578;2023-04-20T12:15:44;11.30;99.90
14378;DHT22;7272;53.668;9.578;2023-04-20T12:18:48;11.30;99.90
14378;DHT22;7272;53.668;9.578;2023-04-20T12:21:49;11.30;99.90
14378;DHT22;7272;53.668;9.578;2023-04-20T12:24:51;11.20;99.90
14378;DHT22;7272;53.668;9.578;2023-04-20T12:27:52;11.30;99.90
14378;DHT22;7272;53.668;9.578;2023-04-20T12:30:53;11.20;99.90
14378;DHT22;7272;53.668;9.578;2023-04-20T12:33:55;11.10;99.90
14378;DHT22;7272;53.668;9.578;2023-04-20T12:36:56;10.90;99.90
14378;DHT22;7272;53.668;9.578;2023-04-20T12:39:58;10.90;99.90
14378;DHT22;7272;53.668;9.578;2023-04-20T12:42:59;10.70;99.90
14378;DHT22;7272;53.668;9.578;2023-04-20T12:46:00;10.80;99.90
14378;DHT22;7272;53.668;9.578;2023-04-20T12:49:02;10.70;99.90
14378;DHT22;7272;53.668;9.578;2023-04-20T12:52:03;10.70;99.90
14378;DHT22;7272;53.668;9.578;2023-04-20T12:55:05;10.60;99.90
14378;DHT22;7272;53.668;9.578;2023-04-20T12:58:07;10.60;99.90
14378;DHT22;7272;53.668;9.578;2023-04-20T13:01:08;10.70;99.90
14378;DHT22;7272;53.668;9.578;2023-04-20T13:04:10;10.70;99.90
14378;DHT22;7272;53.668;9.578;2023-04-20T13:07:11;10.60;99.90
14378;DHT22;7272;53.668;9.578;2023-04-20T13:10:12;10.70;99.90
14378;DHT22;7272;53.668;9.578;2023-04-20T13:13:14;10.70;99.90
14378;DHT22;7272;53.668;9.578;2023-04-20T13:16:15;10.80;99.90
14378;DHT22;7272;53.668;9.578;2023-04-20T13:19:17;10.80;99.90
14378;DHT22;7272;53.668;9.578;2023-04-20T13:22:18;10.90;99.90
14378;DHT22;7272;53.668;9.578;2023-04-20T13:25:20;11.10;99.90
14378;DHT22;7272;53.668;9.578;2023-04-20T13:28:21;11.20;99.90
14378;DHT22;7272;53.668;9.578;2023-04-20T13:31:22;11.50;99.90
14378;DHT22;7272;53.668;9.578;2023-04-20T13:34:24;11.50;99.90
14378;DHT22;7272;53.668;9.578;2023-04-20T13:37:25;11.70;99.90
14378;DHT22;7272;53.668;9.578;2023-04-20T13:40:27;11.60;99.90
14378;DHT22;7272;53.668;9.578;2023-04-20T13:43:28;11.60;99.90
14378;DHT22;7272;53.668;9.578;2023-04-20T13:46:30;11.70;99.90
14378;DHT22;7272;53.668;9.578;2023-04-20T13:49:32;11.90;99.90
14378;DHT22;7272;53.668;9.578;2023-04-20T13:52:35;12.20;99.90
14378;DHT22;7272;53.668;9.578;2023-04-20T13:55:37;12.20;99.90
14378;DHT22;7272;53.668;9.578;2023-04-20T13:58:39;12.40;99.90
14378;DHT22;7272;53.668;9.578;2023-04-20T14:01:40;12.40;99.90
14378;DHT22;7272;53.668;9.578;2023-04-20T14:04:42;12.30;99.90
14378;DHT22;7272;53.668;9.578;2023-04-20T14:07:44;12.30;99.90
14378;DHT22;7272;53.668;9.578;2023-04-20T14:10:45;12.30;99.90
14378;DHT22;7272;53.668;9.578;2023-04-20T14:13:46;12.20;99.90
14378;DHT22;7272;53.668;9.578;2023-04-20T14:16:48;12.30;99.90
14378;DHT22;7272;53.668;9.578;2023-04-20T14:19:50;12.40;99.90
14378;DHT22;7272;53.668;9.578;2023-04-20T14:22:51;12.50;99.90
14378;DHT22;7272;53.668;9.578;2023-04-20T14:25:52;12.60;99.90
14378;DHT22;7272;53.668;9.578;2023-04-20T14:28:53;12.60;99.90
14378;DHT22;7272;53.668;9.578;2023-04-20T14:31:54;12.80;99.90
14378;DHT22;7272;53.668;9.578;2023-04-20T14:34:56;12.80;99.90
14378;DHT22;7272;53.668;9.578;2023-04-20T14:37:57;12.80;99.90
14378;DHT22;7272;53.668;9.578;2023-04-20T14:40:59;12.90;99.90
14378;DHT22;7272;53.668;9.578;2023-04-20T14:44:00;12.80;99.90
14378;DHT22;7272;53.668;9.578;2023-04-20T14:47:01;12.70;99.90
14378;DHT22;7272;53.668;9.578;2023-04-20T14:50:04;12.80;99.90
14378;DHT22;7272;53.668;9.578;2023-04-20T14:53:05;12.90;99.90
14378;DHT22;7272;53.668;9.578;2023-04-20T14:56:07;12.80;99.90
14378;DHT22;7272;53.668;9.578;2023-04-20T14:59:08;12.90;99.90
14378;DHT22;7272;53.668;9.578;2023-04-20T15:02:10;12.90;99.90
14378;DHT22;7272;53.668;9.578;2023-04-20T15:05:12;13.00;99.90
14378;DHT22;7272;53.668;9.578;2023-04-20T15:08:13;13.00;99.90
14378;DHT22;7272;53.668;9.578;2023-04-20T15:11:14;13.10;99.90
14378;DHT22;7272;53.668;9.578;2023-04-20T15:14:16;13.20;99.90
14378;DHT22;7272;53.668;9.578;2023-04-20T15:17:17;13.30;99.90
14378;DHT22;7272;53.668;9.578;2023-04-20T15:20:20;13.30;99.90
14378;DHT22;7272;53.668;9.578;2023-04-20T15:23:21;13.40;99.90
14378;DHT22;7272;53.668;9.578;2023-04-20T15:26:22;13.50;99.90
14378;DHT22;7272;53.668;9.578;2023-04-20T15:29:23;13.60;99.90
14378;DHT22;7272;53.668;9.578;2023-04-20T15:32:25;13.70;99.90
14378;DHT22;7272;53.668;9.578;2023-04-20T15:35:26;13.80;99.90
14378;DHT22;7272;53.668;9.578;2023-04-20T15:38:28;13.90;99.90
14378;DHT22;7272;53.668;9.578;2023-04-20T15:41:29;13.90;99.90
14378;DHT22;7272;53.668;9.578;2023-04-20T15:44:30;13.90;99.90
14378;DHT22;7272;53.668;9.578;2023-04-20T15:47:31;14.00;99.90
14378;DHT22;7272;53.668;9.578;2023-04-20T15:50:33;14.10;99.90
14378;DHT22;7272;53.668;9.578;2023-04-20T15:53:35;14.00;99.90
14378;DHT22;7272;53.668;9.578;2023-04-20T15:56:36;13.90;99.90
14378;DHT22;7272;53.668;9.578;2023-04-20T15:59:37;13.80;99.90
14378;DHT22;7272;53.668;9.578;2023-04-20T16:02:39;13.70;99.90
14378;DHT22;7272;53.668;9.578;2023-04-20T16:05:41;13.60;99.90
14378;DHT22;7272;53.668;9.578;2023-04-20T16:08:42;13.60;99.90
14378;DHT22;7272;53.668;9.578;2023-04-20T16:11:43;13.60;99.90
14378;DHT22;7272;53.668;9.578;2023-04-20T16:14:44;13.60;99.90
14378;DHT22;7272;53.668;9.578;2023-04-20T16:17:46;13.70;99.90
14378;DHT22;7272;53.668;9.578;2023-04-20T16:20:47;13.80;99.90
14378;DHT22;7272;53.668;9.578;2023-04-20T16:23:50;13.80;99.90
14378;DHT22;7272;53.668;9.578;2023-04-20T16:26:52;13.80;99.90
14378;DHT22;7272;53.668;9.578;2023-04-20T16:29:55;13.80;99.90
14378;DHT22;7272;53.668;9.578;2023-04-20T16:32:56;13.80;99.90
14378;DHT22;7272;53.668;9.578;2023-04-20T16:35:59;13.80;99.90
14378;DHT22;7272;53.668;9.578;2023-04-20T16:39:01;13.80;99.90
14378;DHT22;7272;53.668;9.578;2023-04-20T16:42:05;13.80;99.90
14378;DHT22;7272;53.668;9.578;2023-04-20T16:45:07;13.80;99.90
14378;DHT22;7272;53.668;9.578;2023-04-20T16:48:08;13.80;99.90
14378;DHT22;7272;53.668;9.578;2023-04-20T16:51:10;13.80;99.90
14378;DHT22;7272;53.668;9.578;2023-04-20T16:54:11;13.70;99.90
14378;DHT22;7272;53.668;9.578;2023-04-20T16:57:13;13.60;99.90
14378;DHT22;7272;53.668;9.578;2023-04-20T17:00:15;13.60;99.90
14378;DHT22;7272;53.668;9.578;2023-04-20T17:03:16;13.50;99.90
14378;DHT22;7272;53.668;9.578;2023-04-20T17:06:18;13.60;99.90
14378;DHT22;7272;53.668;9.578;2023-04-20T17:09:19;13.50;99.90
14378;DHT22;7272;53.668;9.578;2023-04-20T17:12:20;13.50;99.90
14378;DHT22;7272;53.668;9.578;2023-04-20T17:15:22;13.40;99.90
14378;DHT22;7272;53.668;9.578;2023-04-20T17:18:23;13.40;99.90
14378;DHT22;7272;53.668;9.578;2023-04-20T17:21:25;13.10;99.90
14378;DHT22;7272;53.668;9.578;2023-04-20T17:24:28;13.10;99.90
14378;DHT22;7272;53.668;9.578;2023-04-20T17:27:29;12.80;99.90
14378;DHT22;7272;53.668;9.578;2023-04-20T17:30:31;12.70;99.90
14378;DHT22;7272;53.668;9.578;2023-04-20T17:33:32;12.70;99.90
14378;DHT22;7272;53.668;9.578;2023-04-20T17:36:35;12.60;99.90
14378;DHT22;7272;53.668;9.578;2023-04-20T17:39:36;12.50;99.90
14378;DHT22;7272;53.668;9.578;2023-04-20T17:42:37;12.40;99.90
14378;DHT22;7272;53.668;9.578;2023-04-20T17:45:39;12.30;99.90
14378;DHT22;7272;53.668;9.578;2023-04-20T17:48:40;12.20;99.90
14378;DHT22;7272;53.668;9.578;2023-04-20T17:51:42;12.00;99.90
14378;DHT22;7272;53.668;9.578;2023-04-20T17:54:43;12.00;99.90
14378;DHT22;7272;53.668;9.578;2023-04-20T17:57:45;11.90;99.90
14378;DHT22;7272;53.668;9.578;2023-04-20T18:00:46;11.90;99.90
14378;DHT22;7272;53.668;9.578;2023-04-20T18:03:47;11.80;99.90
14378;DHT22;7272;53.668;9.578;2023-04-20T18:06:50;11.80;99.90
14378;DHT22;7272;53.668;9.578;2023-04-20T18:09:51;11.80;99.90
14378;DHT22;7272;53.668;9.578;2023-04-20T18:12:52;11.80;99.90
14378;DHT22;7272;53.668;9.578;2023-04-20T18:15:54;11.70;99.90
14378;DHT22;7272;53.668;9.578;2023-04-20T18:18:55;11.70;99.90
14378;DHT22;7272;53.668;9.578;2023-04-20T18:21:57;11.60;99.90
14378;DHT22;7272;53.668;9.578;2023-04-20T18:24:58;11.60;99.90
14378;DHT22;7272;53.668;9.578;2023-04-20T18:27:59;11.60;99.90
14378;DHT22;7272;53.668;9.578;2023-04-20T18:31:01;11.50;99.90
14378;DHT22;7272;53.668;9.578;2023-04-20T18:34:02;11.40;99.90
14378;DHT22;7272;53.668;9.578;2023-04-20T18:37:05;11.30;99.90
14378;DHT22;7272;53.668;9.578;2023-04-20T18:40:08;11.30;99.90
14378;DHT22;7272;53.668;9.578;2023-04-20T18:43:09;11.20;99.90
14378;DHT22;7272;53.668;9.578;2023-04-20T18:46:10;11.10;99.90
14378;DHT22;7272;53.668;9.578;2023-04-20T18:49:11;11.00;99.90
14378;DHT22;7272;53.668;9.578;2023-04-20T18:52:13;11.00;99.90
14378;DHT22;7272;53.668;9.578;2023-04-20T18:55:15;10.90;99.90
14378;DHT22;7272;53.668;9.578;2023-04-20T18:58:16;10.90;99.90
14378;DHT22;7272;53.668;9.578;2023-04-20T19:01:17;10.90;99.90
14378;DHT22;7272;53.668;9.578;2023-04-20T19:04:18;10.90;99.90
14378;DHT22;7272;53.668;9.578;2023-04-20T19:07:20;10.80;99.90
14378;DHT22;7272;53.668;9.578;2023-04-20T19:10:22;10.70;99.90
14378;DHT22;7272;53.668;9.578;2023-04-20T19:13:23;10.70;99.90
14378;DHT22;7272;53.668;9.578;2023-04-20T19:16:24;10.70;99.90
14378;DHT22;7272;53.668;9.578;2023-04-20T19:19:25;10.70;99.90
14378;DHT22;7272;53.668;9.578;2023-04-20T19:22:27;10.60;99.90
14378;DHT22;7272;53.668;9.578;2023-04-20T19:25:28;10.60;99.90
14378;DHT22;7272;53.668;9.578;2023-04-20T19:28:30;10.60;99.90
14378;DHT22;7272;53.668;9.578;2023-04-20T19:31:31;10.50;99.90
14378;DHT22;7272;53.668;9.578;2023-04-20T19:34:37;10.60;99.90
14378;DHT22;7272;53.668;9.578;2023-04-20T19:37:38;10.60;99.90
14378;DHT22;7272;53.668;9.578;2023-04-20T19:40:40;10.50;99.90